createdAt,value
2018-07-24T00:02:11.875Z,17.10
2018-07-24T00:04:48.259Z,17.10
2018-07-24T00:10:01.865Z,17.10
2018-07-24T00:12:38.092Z,17.00
2018-07-24T00:15:14.100Z,17.00
2018-07-24T00:17:50.292Z,16.90
2018-07-24T00:20:26.737Z,16.90
2018-07-24T00:23:02.918Z,16.90
2018-07-24T00:25:39.264Z,16.90
2018-07-24T00:28:15.436Z,16.90
2018-07-24T00:30:51.528Z,16.80
2018-07-24T00:33:27.476Z,16.80
2018-07-24T00:36:03.494Z,16.80
2018-07-24T00:38:39.907Z,16.70
2018-07-24T00:41:16.127Z,16.70
2018-07-24T00:43:52.301Z,16.80
2018-07-24T00:46:28.684Z,16.80
2018-07-24T00:49:04.724Z,16.90
2018-07-24T00:51:40.967Z,16.90
2018-07-24T00:54:17.203Z,16.90
2018-07-24T00:56:53.531Z,16.80
2018-07-24T00:59:29.544Z,16.80
2018-07-24T01:02:05.747Z,16.70
2018-07-24T01:04:42.108Z,16.70
2018-07-24T01:07:18.287Z,16.70
2018-07-24T01:09:54.403Z,16.60
2018-07-24T01:12:30.494Z,16.60
2018-07-24T01:15:07.407Z,16.50
2018-07-24T01:17:43.635Z,16.50
2018-07-24T01:20:19.954Z,16.40
2018-07-24T01:22:56.204Z,16.40
2018-07-24T01:25:32.216Z,16.40
2018-07-24T01:28:08.588Z,16.30
2018-07-24T01:30:44.815Z,16.20
2018-07-24T01:33:20.974Z,16.20
2018-07-24T01:35:57.254Z,16.20
2018-07-24T01:38:33.349Z,16.20
2018-07-24T01:41:09.269Z,16.20
2018-07-24T01:43:45.657Z,16.20
2018-07-24T01:46:21.647Z,16.20
2018-07-24T01:48:57.787Z,16.20
2018-07-24T01:51:33.797Z,16.20
2018-07-24T01:54:10.188Z,16.30
2018-07-24T01:56:46.119Z,16.30
2018-07-24T01:59:22.152Z,16.30
2018-07-24T02:01:58.644Z,16.30
2018-07-24T02:04:34.747Z,16.20
2018-07-24T02:07:10.997Z,16.30
2018-07-24T02:09:47.005Z,16.30
2018-07-24T02:12:23.198Z,16.20
2018-07-24T02:14:59.565Z,16.20
2018-07-24T02:17:35.524Z,16.20
2018-07-24T02:20:11.698Z,16.20
2018-07-24T02:22:47.629Z,16.10
2018-07-24T02:25:23.910Z,16.00
2018-07-24T02:28:00.050Z,16.00
2018-07-24T02:30:36.448Z,16.00
2018-07-24T02:33:13.068Z,16.10
2018-07-24T02:35:49.508Z,16.10
2018-07-24T02:38:25.939Z,16.10
2018-07-24T02:41:01.930Z,16.00
2018-07-24T02:43:38.030Z,16.00
2018-07-24T02:46:14.050Z,15.90
2018-07-24T02:48:50.246Z,15.90
2018-07-24T02:51:26.127Z,15.90
2018-07-24T02:54:02.303Z,15.90
2018-07-24T02:56:38.564Z,15.80
2018-07-24T02:59:14.749Z,15.80
2018-07-24T03:01:50.859Z,15.80
2018-07-24T03:04:27.105Z,15.70
2018-07-24T03:07:03.135Z,15.70
2018-07-24T03:09:39.272Z,15.80
2018-07-24T03:12:15.525Z,15.80
2018-07-24T03:14:51.545Z,15.80
2018-07-24T03:17:27.588Z,15.80
2018-07-24T03:20:03.973Z,15.90
2018-07-24T03:22:39.922Z,15.90
2018-07-24T03:25:15.969Z,15.90
2018-07-24T03:27:52.389Z,16.00
2018-07-24T03:30:28.422Z,16.00
2018-07-24T03:33:04.575Z,16.00
2018-07-24T03:35:40.665Z,16.00
2018-07-24T03:38:16.805Z,16.10
2018-07-24T03:40:52.858Z,16.00
2018-07-24T03:43:29.227Z,16.00
2018-07-24T03:46:05.560Z,16.10
2018-07-24T03:48:41.714Z,16.00
2018-07-24T03:51:17.887Z,16.10
2018-07-24T03:53:54.018Z,16.10
2018-07-24T03:56:30.329Z,16.10
2018-07-24T03:59:06.605Z,16.20
2018-07-24T04:01:42.825Z,16.20
2018-07-24T04:06:54.956Z,16.30
2018-07-24T04:09:31.248Z,16.30
2018-07-24T04:12:07.441Z,16.30
2018-07-24T04:14:43.306Z,16.40
2018-07-24T04:18:48.499Z,16.40
2018-07-24T04:21:24.637Z,16.40
2018-07-24T04:24:00.898Z,16.50
2018-07-24T04:26:37.009Z,16.50
2018-07-24T04:29:12.895Z,16.60
2018-07-24T04:31:48.886Z,16.50
2018-07-24T04:34:24.879Z,16.50
2018-07-24T04:37:01.099Z,16.50
2018-07-24T04:39:37.257Z,16.50
2018-07-24T04:42:13.205Z,16.60
2018-07-24T04:44:49.572Z,16.60
2018-07-24T04:47:25.919Z,16.70
2018-07-24T04:50:01.967Z,16.70
2018-07-24T04:52:37.743Z,16.70
2018-07-24T04:55:13.986Z,16.70
2018-07-24T04:57:49.949Z,16.80
2018-07-24T05:03:01.826Z,16.90
2018-07-24T05:05:37.903Z,17.00
2018-07-24T05:08:14.228Z,17.10
2018-07-24T05:10:50.082Z,17.20
2018-07-24T05:13:26.358Z,17.30
2018-07-24T05:16:02.376Z,17.50
2018-07-24T05:18:38.537Z,17.80
2018-07-24T05:21:14.486Z,18.00
2018-07-24T05:23:50.549Z,18.20
2018-07-24T05:26:26.809Z,18.50
2018-07-24T05:29:03.105Z,18.80
2018-07-24T05:31:39.098Z,19.10
2018-07-24T05:34:15.225Z,19.80
2018-07-24T05:36:51.162Z,20.50
2018-07-24T05:39:27.122Z,20.80
2018-07-24T05:42:03.036Z,21.30
2018-07-24T05:44:38.818Z,21.60
2018-07-24T05:47:14.915Z,21.90
2018-07-24T05:49:51.017Z,22.10
2018-07-24T05:52:27.205Z,22.30
2018-07-24T05:55:03.094Z,22.60
2018-07-24T05:57:39.188Z,22.80
2018-07-24T06:00:15.385Z,23.20
2018-07-24T06:02:51.301Z,23.30
2018-07-24T06:05:27.724Z,23.60
2018-07-24T06:08:03.825Z,23.60
2018-07-24T06:10:40.011Z,23.60
2018-07-24T06:13:16.011Z,23.90
2018-07-24T06:15:52.244Z,23.80
2018-07-24T06:18:28.520Z,23.90
2018-07-24T06:21:04.759Z,24.40
2018-07-24T06:23:40.865Z,24.50
2018-07-24T06:26:17.088Z,24.70
2018-07-24T06:28:52.878Z,24.90
2018-07-24T06:31:29.309Z,24.60
2018-07-24T06:34:05.200Z,24.60
2018-07-24T06:36:42.229Z,24.80
2018-07-24T06:39:18.376Z,24.90
2018-07-24T06:41:54.461Z,24.60
2018-07-24T06:44:30.818Z,24.50
2018-07-24T06:47:06.797Z,24.60
2018-07-24T06:49:42.818Z,24.50
2018-07-24T06:52:19.028Z,24.80
2018-07-24T06:54:55.246Z,24.60
2018-07-24T06:57:31.085Z,24.70
2018-07-24T07:00:07.826Z,24.40
2018-07-24T07:02:44.048Z,24.30
2018-07-24T07:05:20.804Z,24.50
2018-07-24T07:08:01.264Z,24.50
2018-07-24T07:10:37.486Z,24.20
2018-07-24T07:13:13.510Z,24.00
2018-07-24T07:15:49.493Z,23.80
2018-07-24T07:18:25.545Z,23.80
2018-07-24T07:21:01.658Z,23.60
2018-07-24T07:23:37.708Z,23.70
2018-07-24T07:26:13.661Z,23.80
2018-07-24T07:31:24.990Z,23.70
2018-07-24T07:34:01.055Z,23.80
2018-07-24T07:36:37.248Z,24.00
2018-07-24T07:41:48.637Z,24.10
2018-07-24T07:44:24.335Z,24.10
2018-07-24T07:47:00.538Z,24.10
2018-07-24T07:49:36.773Z,24.30
2018-07-24T07:52:12.918Z,24.30
2018-07-24T07:54:48.855Z,24.40
2018-07-24T07:57:24.705Z,24.40
2018-07-24T08:00:00.648Z,24.50
2018-07-24T08:02:36.653Z,24.50
2018-07-24T08:05:12.678Z,24.40
2018-07-24T08:07:48.689Z,24.50
2018-07-24T08:10:24.818Z,24.80
2018-07-24T08:13:00.891Z,25.00
2018-07-24T08:15:36.772Z,24.90
2018-07-24T08:18:12.995Z,24.80
2018-07-24T08:20:49.108Z,24.90
2018-07-24T08:23:27.858Z,24.90
2018-07-24T08:26:04.614Z,24.90
2018-07-24T08:28:40.757Z,25.00
2018-07-24T08:31:16.789Z,25.10
2018-07-24T08:33:53.036Z,25.20
2018-07-24T08:36:28.889Z,25.40
2018-07-24T08:39:07.526Z,25.40
2018-07-24T08:41:43.466Z,25.40
2018-07-24T08:44:19.810Z,25.40
2018-07-24T08:46:55.863Z,25.40
2018-07-24T08:49:32.060Z,25.30
2018-07-24T08:52:08.592Z,25.40
2018-07-24T08:54:45.492Z,25.60
2018-07-24T08:57:21.694Z,25.80
2018-07-24T08:59:58.812Z,25.80
2018-07-24T09:02:35.539Z,25.80
2018-07-24T09:05:11.985Z,25.90
2018-07-24T09:07:48.366Z,26.00
2018-07-24T09:10:24.855Z,26.10
2018-07-24T09:13:00.763Z,26.10
2018-07-24T09:15:36.814Z,26.00
2018-07-24T09:18:12.424Z,26.10
2018-07-24T09:20:48.721Z,26.20
2018-07-24T09:23:24.567Z,26.20
2018-07-24T09:26:00.597Z,26.40
2018-07-24T09:28:36.716Z,26.60
2018-07-24T09:31:12.821Z,26.50
2018-07-24T09:33:48.804Z,26.60
2018-07-24T09:36:24.867Z,26.80
2018-07-24T09:39:00.929Z,26.90
2018-07-24T09:41:37.051Z,26.70
2018-07-24T09:44:13.080Z,26.70
2018-07-24T09:46:49.136Z,26.80
2018-07-24T09:49:25.194Z,26.90
2018-07-24T09:52:01.097Z,27.20
2018-07-24T09:54:37.366Z,27.20
2018-07-24T09:57:13.305Z,27.10
2018-07-24T09:59:49.384Z,27.20
2018-07-24T10:02:25.322Z,27.40
2018-07-24T10:05:01.379Z,27.60
2018-07-24T10:07:37.509Z,27.60
2018-07-24T10:10:13.528Z,27.40
2018-07-24T10:12:49.899Z,27.60
2018-07-24T10:15:26.177Z,27.70
2018-07-24T10:18:02.330Z,27.60
2018-07-24T10:20:38.202Z,27.50
2018-07-24T10:23:14.426Z,27.80
2018-07-24T10:25:50.242Z,28.10
2018-07-24T10:28:26.220Z,28.40
2018-07-24T10:31:02.119Z,28.50
2018-07-24T10:33:37.954Z,28.50
2018-07-24T10:36:13.935Z,28.70
2018-07-24T10:38:49.832Z,28.70
2018-07-24T10:41:25.790Z,28.60
2018-07-24T10:44:01.888Z,28.80
2018-07-24T10:46:38.811Z,28.90
2018-07-24T10:49:14.927Z,29.20
2018-07-24T10:51:50.812Z,29.80
2018-07-24T10:54:26.713Z,30.00
2018-07-24T10:57:02.556Z,30.20
2018-07-24T10:59:38.527Z,30.20
2018-07-24T11:02:14.622Z,29.90
2018-07-24T11:04:50.586Z,30.20
2018-07-24T11:07:26.626Z,30.40
2018-07-24T11:10:02.762Z,30.30
2018-07-24T11:12:38.954Z,30.40
2018-07-24T11:15:14.806Z,30.90
2018-07-24T11:20:25.918Z,31.30
2018-07-24T11:23:01.864Z,31.80
2018-07-24T11:25:37.951Z,31.60
2018-07-24T11:28:14.112Z,32.20
2018-07-24T11:30:50.076Z,32.10
2018-07-24T11:33:26.140Z,32.50
2018-07-24T11:36:02.149Z,32.20
2018-07-24T11:38:37.953Z,33.00
2018-07-24T11:41:13.746Z,32.20
2018-07-24T11:43:49.871Z,31.10
2018-07-24T11:46:25.940Z,31.10
2018-07-24T11:49:01.906Z,31.90
2018-07-24T11:51:38.125Z,32.20
2018-07-24T11:54:14.012Z,33.00
2018-07-24T11:56:49.828Z,33.10
2018-07-24T11:59:25.747Z,33.40
2018-07-24T12:02:01.619Z,33.20
2018-07-24T12:04:37.826Z,33.80
2018-07-24T12:07:13.620Z,33.90
2018-07-24T12:09:49.917Z,34.50
2018-07-24T12:12:27.117Z,35.10
2018-07-24T12:15:04.106Z,34.30
2018-07-24T12:17:40.389Z,33.80
2018-07-24T12:20:19.238Z,33.70
2018-07-24T12:22:56.129Z,34.30
2018-07-24T12:25:33.141Z,34.30
2018-07-24T12:28:09.481Z,34.00
2018-07-24T12:30:46.015Z,33.90
2018-07-24T12:33:22.194Z,33.80
2018-07-24T12:35:58.458Z,34.90
2018-07-24T12:38:34.592Z,35.10
2018-07-24T12:41:10.745Z,35.90
2018-07-24T12:43:47.534Z,36.30
2018-07-24T12:46:23.798Z,34.60
2018-07-24T12:48:59.685Z,33.70
2018-07-24T12:51:35.696Z,33.50
2018-07-24T12:54:11.987Z,33.40
2018-07-24T12:56:49.637Z,32.80
2018-07-24T12:59:25.957Z,33.70
2018-07-24T13:02:03.268Z,34.60
2018-07-24T13:04:39.447Z,34.80
2018-07-24T13:07:16.084Z,35.60
2018-07-24T13:09:52.470Z,36.20
2018-07-24T13:12:28.444Z,36.70
2018-07-24T13:15:05.367Z,36.30
2018-07-24T13:20:18.310Z,34.90
2018-07-24T13:22:54.129Z,33.40
2018-07-24T13:25:30.154Z,32.50
2018-07-24T13:28:06.288Z,33.20
2018-07-24T13:30:42.359Z,33.30
2018-07-24T13:33:18.801Z,34.30
2018-07-24T13:35:54.684Z,34.90
2018-07-24T13:38:31.006Z,35.50
2018-07-24T13:41:06.909Z,36.10
2018-07-24T13:43:42.767Z,36.00
2018-07-24T13:46:18.804Z,35.60
2018-07-24T13:48:55.044Z,35.40
2018-07-24T13:51:30.928Z,34.60
2018-07-24T13:54:07.014Z,34.40
2018-07-24T13:56:43.093Z,33.50
2018-07-24T13:59:19.268Z,33.30
2018-07-24T14:01:56.863Z,32.90
2018-07-24T14:04:32.916Z,32.50
2018-07-24T14:07:09.518Z,32.10
2018-07-24T14:09:45.503Z,32.00
2018-07-24T14:12:21.371Z,32.10
2018-07-24T14:14:57.638Z,31.80
2018-07-24T14:17:34.535Z,31.50
2018-07-24T14:20:10.566Z,31.40
2018-07-24T14:22:46.426Z,31.20
2018-07-24T14:25:22.613Z,31.30
2018-07-24T14:27:58.651Z,31.30
2018-07-24T14:30:34.743Z,31.20
2018-07-24T14:33:10.689Z,31.40
2018-07-24T14:35:46.904Z,31.40
2018-07-24T14:38:22.757Z,31.30
2018-07-24T14:40:58.702Z,31.20
2018-07-24T14:43:34.828Z,31.30
2018-07-24T14:46:10.767Z,31.30
2018-07-24T14:48:46.581Z,31.10
2018-07-24T14:51:22.647Z,31.10
2018-07-24T14:53:58.590Z,30.80
2018-07-24T14:56:34.637Z,30.30
2018-07-24T14:59:10.651Z,30.00
2018-07-24T15:01:46.717Z,30.00
2018-07-24T15:04:22.557Z,30.00
2018-07-24T15:06:58.828Z,29.90
2018-07-24T15:09:34.847Z,29.80
2018-07-24T15:12:10.741Z,29.80
2018-07-24T15:14:46.624Z,29.80
2018-07-24T15:17:22.756Z,29.80
2018-07-24T15:19:58.765Z,29.50
2018-07-24T15:22:34.613Z,29.50
2018-07-24T15:25:10.388Z,29.50
2018-07-24T15:27:46.540Z,29.60
2018-07-24T15:30:22.485Z,29.70
2018-07-24T15:32:58.384Z,29.50
2018-07-24T15:35:34.494Z,29.40
2018-07-24T15:38:10.287Z,29.30
2018-07-24T15:40:46.115Z,29.40
2018-07-24T15:43:21.939Z,29.40
2018-07-24T15:45:57.744Z,29.30
2018-07-24T15:48:33.860Z,29.40
2018-07-24T15:51:09.807Z,29.40
2018-07-24T15:53:45.791Z,29.30
2018-07-24T15:56:22.007Z,29.20
2018-07-24T15:58:58.174Z,29.20
2018-07-24T16:01:34.217Z,29.20
2018-07-24T16:04:10.184Z,29.20
2018-07-24T16:06:46.267Z,29.30
2018-07-24T16:09:22.178Z,29.20
2018-07-24T16:11:58.032Z,29.20
2018-07-24T16:14:34.198Z,29.20
2018-07-24T16:17:10.206Z,29.20
2018-07-24T16:19:46.124Z,29.20
2018-07-24T16:22:22.348Z,29.20
2018-07-24T16:24:58.435Z,29.20
2018-07-24T16:27:34.448Z,29.20
2018-07-24T16:30:10.657Z,29.10
2018-07-24T16:32:46.646Z,29.00
2018-07-24T16:35:22.647Z,29.00
2018-07-24T16:37:58.628Z,28.90
2018-07-24T16:40:34.607Z,28.90
2018-07-24T16:43:10.627Z,28.80
2018-07-24T16:45:46.570Z,28.80
2018-07-24T16:48:22.582Z,28.70
2018-07-24T16:50:58.667Z,28.70
2018-07-24T16:53:34.785Z,28.70
2018-07-24T16:56:10.825Z,28.60
2018-07-24T16:58:46.978Z,28.60
2018-07-24T17:01:23.265Z,28.50
2018-07-24T17:03:59.147Z,28.50
2018-07-24T17:06:35.310Z,28.50
2018-07-24T17:09:12.128Z,28.40
2018-07-24T17:11:47.887Z,28.40
2018-07-24T17:14:23.819Z,28.40
2018-07-24T17:16:59.674Z,28.40
2018-07-24T17:19:35.748Z,28.30
2018-07-24T17:22:11.998Z,28.30
2018-07-24T17:24:48.121Z,28.20
2018-07-24T17:27:24.341Z,28.20
2018-07-24T17:30:00.205Z,28.10
2018-07-24T17:32:36.028Z,28.10
2018-07-24T17:35:11.937Z,28.10
2018-07-24T17:37:48.048Z,28.00
2018-07-24T17:40:23.762Z,28.00
2018-07-24T17:42:59.874Z,27.90
2018-07-24T17:45:36.088Z,27.90
2018-07-24T17:48:12.056Z,27.80
2018-07-24T17:50:48.190Z,27.80
2018-07-24T17:53:24.382Z,27.70
2018-07-24T17:56:00.295Z,27.60
2018-07-24T17:58:36.272Z,27.60
2018-07-24T18:01:12.424Z,27.60
2018-07-24T18:03:48.751Z,27.50
2018-07-24T18:06:25.526Z,27.40
2018-07-24T18:09:01.545Z,27.40
2018-07-24T18:11:37.820Z,27.40
2018-07-24T18:14:13.924Z,27.20
2018-07-24T18:16:50.153Z,27.10
2018-07-24T18:19:26.297Z,27.00
2018-07-24T18:22:02.159Z,26.90
2018-07-24T18:24:38.140Z,26.80
2018-07-24T18:27:13.950Z,26.70
2018-07-24T18:29:50.022Z,26.60
2018-07-24T18:32:26.172Z,26.60
2018-07-24T18:35:02.237Z,26.40
2018-07-24T18:37:38.382Z,26.30
2018-07-24T18:40:14.346Z,26.20
2018-07-24T18:42:50.612Z,26.10
2018-07-24T18:45:26.691Z,26.00
2018-07-24T18:48:02.665Z,25.90
2018-07-24T18:50:38.698Z,25.80
2018-07-24T18:53:14.957Z,25.70
2018-07-24T18:55:51.015Z,25.60
2018-07-24T18:58:27.337Z,25.60
2018-07-24T19:01:03.269Z,25.50
2018-07-24T19:03:39.287Z,25.40
2018-07-24T19:06:15.174Z,25.40
2018-07-24T19:08:51.147Z,25.30
2018-07-24T19:11:27.326Z,25.20
2018-07-24T19:14:03.358Z,25.20
2018-07-24T19:16:39.365Z,25.10
2018-07-24T19:19:15.123Z,25.00
2018-07-24T19:21:51.108Z,24.90
2018-07-24T19:24:27.111Z,24.70
2018-07-24T19:27:03.282Z,24.70
2018-07-24T19:29:39.267Z,24.50
2018-07-24T19:32:17.078Z,24.40
2018-07-24T19:34:53.177Z,24.40
2018-07-24T19:37:29.145Z,24.30
2018-07-24T19:40:05.162Z,24.20
2018-07-24T19:42:41.284Z,24.20
2018-07-24T19:45:17.218Z,24.10
2018-07-24T19:47:53.286Z,23.90
2018-07-24T19:50:29.365Z,23.80
2018-07-24T19:53:05.576Z,23.70
2018-07-24T19:55:41.601Z,23.50
2018-07-24T19:58:17.615Z,23.50
2018-07-24T20:00:53.660Z,23.40
2018-07-24T20:03:29.776Z,23.40
2018-07-24T20:06:05.736Z,23.30
2018-07-24T20:08:41.618Z,23.20
2018-07-24T20:11:17.874Z,23.00
2018-07-24T20:13:53.848Z,22.90
2018-07-24T20:16:29.742Z,22.80
2018-07-24T20:19:05.905Z,22.70
2018-07-24T20:21:42.108Z,22.60
2018-07-24T20:24:18.170Z,22.50
2018-07-24T20:26:54.012Z,22.40
2018-07-24T20:29:30.103Z,22.40
2018-07-24T20:32:06.218Z,22.30
2018-07-24T20:37:17.877Z,22.30
2018-07-24T20:42:29.745Z,22.10
2018-07-24T20:45:06.073Z,22.00
2018-07-24T20:47:41.978Z,22.00
2018-07-24T20:50:17.949Z,22.00
2018-07-24T20:52:54.220Z,21.90
2018-07-24T20:55:30.190Z,21.80
2018-07-24T20:58:06.186Z,21.80
2018-07-24T21:00:42.276Z,21.70
2018-07-24T21:03:18.227Z,21.60
2018-07-24T21:05:54.206Z,21.50
2018-07-24T21:08:30.831Z,21.50
2018-07-24T21:11:07.209Z,21.50
2018-07-24T21:13:43.172Z,21.50
2018-07-24T21:16:19.247Z,21.40
2018-07-24T21:18:55.451Z,21.40
2018-07-24T21:21:31.304Z,21.30
2018-07-24T21:24:07.218Z,21.30
2018-07-24T21:26:43.101Z,21.30
2018-07-24T21:29:19.195Z,21.20
2018-07-24T21:31:55.296Z,21.20
2018-07-24T21:34:31.386Z,21.10
2018-07-24T21:37:07.431Z,21.20
2018-07-24T21:39:43.785Z,21.10
2018-07-24T21:42:19.726Z,21.00
2018-07-24T21:44:55.702Z,21.00
2018-07-24T21:47:31.632Z,20.90
2018-07-24T21:50:07.658Z,21.00
2018-07-24T21:52:43.885Z,20.90
2018-07-24T21:55:19.768Z,20.90
2018-07-24T21:57:55.587Z,20.90
2018-07-24T22:00:37.252Z,20.90
2018-07-24T22:03:13.297Z,20.90
2018-07-24T22:05:49.247Z,20.90
2018-07-24T22:08:25.348Z,20.80
2018-07-24T22:11:01.178Z,20.90
2018-07-24T22:13:37.045Z,20.80
2018-07-24T22:16:13.298Z,20.80
2018-07-24T22:18:49.478Z,20.80
2018-07-24T22:21:25.296Z,20.70
2018-07-24T22:24:01.208Z,20.70
2018-07-24T22:26:37.313Z,20.70
2018-07-24T22:29:13.428Z,20.70
2018-07-24T22:31:49.347Z,20.60
2018-07-24T22:34:25.635Z,20.60
2018-07-24T22:37:01.441Z,20.50
2018-07-24T22:39:37.350Z,20.50
2018-07-24T22:42:13.718Z,20.40
2018-07-24T22:44:49.759Z,20.30
2018-07-24T22:47:25.619Z,20.30
2018-07-24T22:50:01.779Z,20.30
2018-07-24T22:52:37.707Z,20.20
2018-07-24T22:55:13.798Z,20.20
2018-07-24T22:57:50.354Z,20.20
2018-07-24T23:00:26.409Z,20.10
2018-07-24T23:03:02.465Z,20.00
2018-07-24T23:05:38.505Z,20.00
2018-07-24T23:08:14.607Z,19.90
2018-07-24T23:10:50.430Z,19.90
2018-07-24T23:13:26.475Z,19.90
2018-07-24T23:16:02.585Z,19.90
2018-07-24T23:18:38.796Z,19.90
2018-07-24T23:21:14.892Z,19.80
2018-07-24T23:23:51.048Z,19.80
2018-07-24T23:26:27.398Z,19.80
2018-07-24T23:29:03.338Z,19.70
2018-07-24T23:31:39.306Z,19.70
2018-07-24T23:34:15.468Z,19.70
2018-07-24T23:36:51.358Z,19.70
2018-07-24T23:39:27.409Z,19.60
2018-07-24T23:42:03.546Z,19.60
2018-07-24T23:44:39.528Z,19.50
2018-07-24T23:47:15.677Z,19.50
2018-07-24T23:49:52.126Z,19.50
2018-07-24T23:52:28.506Z,19.40
2018-07-24T23:55:04.750Z,19.40
2018-07-24T23:57:40.825Z,19.30
